createdAt,value
2022-09-20T00:00:44.546Z,93.07
2022-09-20T00:01:44.541Z,93.18
2022-09-20T00:02:44.484Z,93.28
2022-09-20T00:03:44.482Z,93.38
2022-09-20T00:04:44.516Z,93.28
2022-09-20T00:05:44.464Z,93.48
2022-09-20T00:06:44.421Z,93.69
2022-09-20T00:07:44.413Z,93.48
2022-09-20T00:08:44.423Z,93.38
2022-09-20T00:09:44.425Z,93.48
2022-09-20T00:10:44.408Z,93.79
2022-09-20T00:11:44.380Z,93.59
2022-09-20T00:12:44.508Z,93.38
2022-09-20T00:13:44.357Z,93.28
2022-09-20T00:14:44.383Z,93.48
2022-09-20T00:15:44.338Z,93.48
2022-09-20T00:16:44.878Z,93.38
2022-09-20T00:17:44.313Z,93.07
2022-09-20T00:18:44.302Z,92.87
2022-09-20T00:19:44.339Z,92.87
2022-09-20T00:20:44.281Z,92.97
2022-09-20T00:21:44.325Z,92.87
2022-09-20T00:22:44.256Z,92.87
2022-09-20T00:23:44.284Z,92.87
2022-09-20T00:24:48.784Z,93.07
2022-09-20T00:25:44.227Z,93.48
2022-09-20T00:26:44.257Z,93.69
2022-09-20T00:27:44.204Z,93.38
2022-09-20T00:28:44.226Z,93.48
2022-09-20T00:29:44.210Z,93.89
2022-09-20T00:30:44.198Z,93.99
2022-09-20T00:31:44.212Z,94.09
2022-09-20T00:32:44.196Z,93.99
2022-09-20T00:33:44.136Z,93.79
2022-09-20T00:34:44.160Z,93.69
2022-09-20T00:35:44.118Z,93.59
2022-09-20T00:36:44.138Z,93.28
2022-09-20T00:37:44.118Z,93.48
2022-09-20T00:38:44.099Z,93.38
2022-09-20T00:39:44.109Z,93.38
2022-09-20T00:40:44.120Z,93.38
2022-09-20T00:41:44.067Z,93.69
2022-09-20T00:42:44.047Z,93.93
2022-09-20T00:43:44.053Z,94.09
2022-09-20T00:44:44.058Z,94.04
2022-09-20T00:45:44.071Z,93.99
2022-09-20T00:46:44.026Z,94.04
2022-09-20T00:47:44.000Z,94.24
2022-09-20T00:48:43.991Z,94.50
2022-09-20T00:49:44.027Z,94.71
2022-09-20T00:50:43.951Z,94.91
2022-09-20T00:51:43.953Z,95.12
2022-09-20T00:52:43.943Z,95.21
2022-09-20T00:53:43.936Z,95.32
2022-09-20T00:54:43.937Z,95.12
2022-09-20T00:55:43.917Z,95.21
2022-09-20T00:56:43.883Z,94.30
2022-09-20T00:57:43.882Z,94.20
2022-09-20T00:58:43.873Z,93.43
2022-09-20T00:59:43.876Z,93.52
2022-09-20T01:00:43.885Z,93.84
2022-09-20T01:01:43.969Z,93.43
2022-09-20T01:02:43.894Z,93.47
2022-09-20T01:03:44.011Z,93.67
2022-09-20T01:04:44.844Z,94.08
2022-09-20T01:05:43.810Z,94.49
2022-09-20T01:06:43.785Z,94.79
2022-09-20T01:07:43.786Z,95.10
2022-09-20T01:08:43.757Z,95.31
2022-09-20T01:09:43.757Z,95.31
2022-09-20T01:10:43.766Z,95.57
2022-09-20T01:11:43.728Z,95.67
2022-09-20T01:12:43.714Z,95.67
2022-09-20T01:13:43.721Z,95.57
2022-09-20T01:14:43.738Z,95.26
2022-09-20T01:15:43.712Z,95.47
2022-09-20T01:16:43.830Z,95.57
2022-09-20T01:17:43.738Z,95.97
2022-09-20T01:18:43.683Z,95.57
2022-09-20T01:19:43.644Z,95.67
2022-09-20T01:20:43.642Z,96.28
2022-09-20T01:21:43.630Z,96.54
2022-09-20T01:22:43.619Z,96.75
2022-09-20T01:23:43.603Z,96.75
2022-09-20T01:24:43.634Z,96.34
2022-09-20T01:25:43.569Z,95.73
2022-09-20T01:26:43.581Z,95.52
2022-09-20T01:27:43.555Z,95.06
2022-09-20T01:28:43.585Z,95.01
2022-09-20T01:29:43.538Z,94.91
2022-09-20T01:30:43.510Z,95.06
2022-09-20T01:31:43.582Z,95.26
2022-09-20T01:32:43.497Z,95.47
2022-09-20T01:33:43.486Z,95.36
2022-09-20T01:34:43.482Z,95.36
2022-09-20T01:35:43.500Z,95.67
2022-09-20T01:36:43.450Z,95.97
2022-09-20T01:37:43.469Z,96.08
2022-09-20T01:38:43.440Z,95.97
2022-09-20T01:39:43.522Z,95.87
2022-09-20T01:40:43.453Z,95.87
2022-09-20T01:41:43.444Z,95.97
2022-09-20T01:42:43.409Z,95.67
2022-09-20T01:43:43.380Z,95.57
2022-09-20T01:44:43.440Z,95.67
2022-09-20T01:45:43.439Z,96.08
2022-09-20T01:46:43.366Z,96.08
2022-09-20T01:47:43.336Z,96.08
2022-09-20T01:48:43.325Z,96.28
2022-09-20T01:49:43.322Z,96.75
2022-09-20T01:50:43.378Z,96.79
2022-09-20T01:51:43.322Z,96.48
2022-09-20T01:52:43.289Z,96.18
2022-09-20T01:53:43.307Z,95.77
2022-09-20T01:54:43.258Z,95.36
2022-09-20T01:55:43.277Z,95.26
2022-09-20T01:56:43.257Z,95.36
2022-09-20T01:57:43.237Z,95.16
2022-09-20T01:58:43.206Z,94.85
2022-09-20T01:59:43.218Z,94.65
2022-09-20T02:00:43.259Z,94.95
2022-09-20T02:01:43.217Z,95.36
2022-09-20T02:02:43.231Z,95.67
2022-09-20T02:03:43.146Z,95.47
2022-09-20T02:04:43.158Z,95.77
2022-09-20T02:05:43.154Z,96.18
2022-09-20T02:06:43.120Z,96.48
2022-09-20T02:07:43.112Z,95.87
2022-09-20T02:08:43.152Z,96.08
2022-09-20T02:09:43.139Z,96.28
2022-09-20T02:10:43.108Z,96.79
2022-09-20T02:11:43.107Z,96.89
2022-09-20T02:12:43.051Z,97.00
2022-09-20T02:13:43.080Z,97.00
2022-09-20T02:14:43.031Z,97.09
2022-09-20T02:15:43.048Z,97.00
2022-09-20T02:16:43.059Z,96.89
2022-09-20T02:17:43.009Z,96.69
2022-09-20T02:18:43.017Z,96.59
2022-09-20T02:19:42.987Z,96.69
2022-09-20T02:20:42.969Z,96.69
2022-09-20T02:21:42.952Z,96.38
2022-09-20T02:22:43.002Z,96.48
2022-09-20T02:23:42.964Z,96.38
2022-09-20T02:24:42.922Z,96.38
2022-09-20T02:25:42.920Z,96.48
2022-09-20T02:26:42.903Z,96.89
2022-09-20T02:27:42.954Z,96.79
2022-09-20T02:28:42.897Z,96.89
2022-09-20T02:29:42.916Z,96.89
2022-09-20T02:30:42.951Z,96.69
2022-09-20T02:31:42.969Z,96.08
2022-09-20T02:32:42.864Z,95.57
2022-09-20T02:33:42.917Z,95.77
2022-09-20T02:34:42.847Z,95.97
2022-09-20T02:35:42.825Z,96.38
2022-09-20T02:36:42.806Z,96.59
2022-09-20T02:37:42.817Z,97.00
2022-09-20T02:38:42.820Z,97.20
2022-09-20T02:39:42.807Z,96.79
2022-09-20T02:40:42.851Z,96.69
2022-09-20T02:41:42.758Z,96.48
2022-09-20T02:42:42.810Z,96.79
2022-09-20T02:43:42.758Z,96.59
2022-09-20T02:44:42.727Z,96.48
2022-09-20T02:45:42.786Z,96.59
2022-09-20T02:46:42.739Z,96.18
2022-09-20T02:47:42.689Z,95.47
2022-09-20T02:48:42.699Z,95.47
2022-09-20T02:49:42.687Z,95.47
2022-09-20T02:50:42.655Z,95.47
2022-09-20T02:51:42.665Z,95.57
2022-09-20T02:52:42.640Z,95.87
2022-09-20T02:53:42.691Z,95.77
2022-09-20T02:54:42.671Z,95.87
2022-09-20T02:55:42.625Z,95.87
2022-09-20T02:56:42.615Z,95.83
2022-09-20T02:57:42.624Z,96.14
2022-09-20T02:58:42.581Z,96.23
2022-09-20T02:59:42.630Z,96.14
2022-09-20T03:00:42.604Z,95.83
2022-09-20T03:01:42.556Z,95.93
2022-09-20T03:02:42.568Z,96.03
2022-09-20T03:03:42.599Z,96.14
2022-09-20T03:04:42.572Z,96.14
2022-09-20T03:05:42.502Z,96.14
2022-09-20T03:06:42.483Z,94.81
2022-09-20T03:07:42.496Z,93.84
2022-09-20T03:08:42.473Z,93.43
2022-09-20T03:09:42.475Z,92.91
2022-09-20T03:10:42.466Z,92.91
2022-09-20T03:11:42.439Z,94.04
2022-09-20T03:12:42.436Z,95.12
2022-09-20T03:13:42.446Z,95.93
2022-09-20T03:14:42.439Z,95.93
2022-09-20T03:15:42.427Z,95.73
2022-09-20T03:16:42.456Z,96.34
2022-09-20T03:17:42.415Z,95.26
2022-09-20T03:18:42.370Z,95.52
2022-09-20T03:19:42.362Z,96.14
2022-09-20T03:20:42.356Z,96.44
2022-09-20T03:21:42.316Z,96.44
2022-09-20T03:22:42.362Z,95.77
2022-09-20T03:23:42.297Z,95.06
2022-09-20T03:24:42.287Z,95.57
2022-09-20T03:25:42.289Z,96.08
2022-09-20T03:26:42.367Z,95.67
2022-09-20T03:27:42.265Z,95.57
2022-09-20T03:28:42.257Z,95.97
2022-09-20T03:29:42.244Z,96.48
2022-09-20T03:30:42.268Z,96.69
2022-09-20T03:31:42.378Z,96.59
2022-09-20T03:32:42.207Z,96.28
2022-09-20T03:33:42.200Z,95.77
2022-09-20T03:34:42.221Z,95.67
2022-09-20T03:35:42.192Z,96.18
2022-09-20T03:36:42.159Z,96.48
2022-09-20T03:37:42.153Z,96.69
2022-09-20T03:38:42.128Z,96.89
2022-09-20T03:39:42.129Z,96.89
2022-09-20T03:40:46.396Z,97.00
2022-09-20T03:41:42.135Z,97.20
2022-09-20T03:42:42.110Z,97.40
2022-09-20T03:43:42.090Z,97.50
2022-09-20T03:44:42.073Z,97.61
2022-09-20T03:45:42.124Z,97.61
2022-09-20T03:46:42.083Z,97.71
2022-09-20T03:47:42.095Z,97.81
2022-09-20T03:48:42.072Z,97.91
2022-09-20T03:49:42.058Z,97.71
2022-09-20T03:50:42.014Z,97.61
2022-09-20T03:51:42.020Z,97.61
2022-09-20T03:52:42.018Z,97.61
2022-09-20T03:53:41.975Z,97.50
2022-09-20T03:54:41.957Z,97.50
2022-09-20T03:55:41.996Z,97.71
2022-09-20T03:56:41.944Z,97.50
2022-09-20T03:57:41.952Z,97.30
2022-09-20T03:58:41.929Z,97.50
2022-09-20T03:59:41.923Z,97.71
2022-09-20T04:00:41.981Z,97.91
2022-09-20T04:01:41.893Z,97.81
2022-09-20T04:02:41.938Z,97.30
2022-09-20T04:03:41.877Z,96.69
2022-09-20T04:04:41.863Z,96.18
2022-09-20T04:05:41.845Z,96.28
2022-09-20T04:06:41.848Z,97.09
2022-09-20T04:07:41.877Z,97.40
2022-09-20T04:08:41.846Z,97.30
2022-09-20T04:09:41.804Z,97.00
2022-09-20T04:10:41.801Z,96.28
2022-09-20T04:11:41.776Z,96.22
2022-09-20T04:12:41.777Z,96.33
2022-09-20T04:13:41.767Z,96.12
2022-09-20T04:14:41.785Z,96.69
2022-09-20T04:15:41.751Z,97.30
2022-09-20T04:16:41.762Z,97.50
2022-09-20T04:17:41.723Z,97.50
2022-09-20T04:18:41.721Z,97.45
2022-09-20T04:19:41.712Z,97.45
2022-09-20T04:20:41.725Z,97.45
2022-09-20T04:21:41.671Z,96.73
2022-09-20T04:22:41.659Z,96.33
2022-09-20T04:23:41.661Z,96.53
2022-09-20T04:24:41.647Z,96.02
2022-09-20T04:25:44.002Z,95.72
2022-09-20T04:26:41.629Z,96.22
2022-09-20T04:27:41.625Z,96.73
2022-09-20T04:28:41.623Z,96.73
2022-09-20T04:29:41.601Z,96.94
2022-09-20T04:30:41.629Z,96.84
2022-09-20T04:31:41.606Z,96.43
2022-09-20T04:32:41.554Z,96.12
2022-09-20T04:33:41.557Z,96.02
2022-09-20T04:34:41.545Z,95.72
2022-09-20T04:35:41.534Z,95.86
2022-09-20T04:36:41.527Z,95.86
2022-09-20T04:37:41.505Z,95.56
2022-09-20T04:38:41.496Z,95.56
2022-09-20T04:39:41.496Z,96.06
2022-09-20T04:40:41.562Z,96.37
2022-09-20T04:41:41.463Z,96.68
2022-09-20T04:42:41.450Z,96.58
2022-09-20T04:43:41.446Z,96.06
2022-09-20T04:44:41.427Z,96.17
2022-09-20T04:45:41.462Z,96.47
2022-09-20T04:46:41.416Z,96.68
2022-09-20T04:47:41.399Z,96.58
2022-09-20T04:48:41.427Z,96.27
2022-09-20T04:49:41.379Z,95.96
2022-09-20T04:50:41.368Z,96.27
2022-09-20T04:51:41.356Z,96.47
2022-09-20T04:52:41.358Z,96.37
2022-09-20T04:53:41.329Z,96.27
2022-09-20T04:54:41.319Z,95.70
2022-09-20T04:55:41.315Z,95.29
2022-09-20T04:56:41.288Z,94.98
2022-09-20T04:57:41.300Z,95.29
2022-09-20T04:58:41.363Z,95.50
2022-09-20T04:59:41.266Z,95.80
2022-09-20T05:00:41.303Z,95.70
2022-09-20T05:01:41.325Z,96.11
2022-09-20T05:02:41.349Z,95.90
2022-09-20T05:03:41.224Z,95.50
2022-09-20T05:04:41.230Z,95.39
2022-09-20T05:05:41.239Z,95.50
2022-09-20T05:06:41.205Z,94.78
2022-09-20T05:07:41.201Z,94.68
2022-09-20T05:08:41.239Z,95.39
2022-09-20T05:09:41.163Z,95.90
2022-09-20T05:10:41.172Z,95.90
2022-09-20T05:11:41.133Z,96.31
2022-09-20T05:12:41.173Z,96.72
2022-09-20T05:13:41.113Z,97.03
2022-09-20T05:14:41.121Z,97.44
2022-09-20T05:15:41.104Z,97.74
2022-09-20T05:16:43.387Z,98.05
2022-09-20T05:17:41.088Z,98.15
2022-09-20T05:18:41.063Z,98.15
2022-09-20T05:19:41.070Z,98.21
2022-09-20T05:20:41.045Z,98.21
2022-09-20T05:21:41.057Z,98.21
2022-09-20T05:22:41.015Z,98.21
2022-09-20T05:23:41.010Z,97.90
2022-09-20T05:24:41.005Z,97.49
2022-09-20T05:25:40.995Z,96.92
2022-09-20T05:26:40.968Z,96.62
2022-09-20T05:27:41.007Z,96.58
2022-09-20T05:28:40.965Z,96.51
2022-09-20T05:29:40.947Z,96.31
2022-09-20T05:30:40.934Z,96.51
2022-09-20T05:31:41.031Z,96.92
2022-09-20T05:32:40.936Z,97.29
2022-09-20T05:33:40.933Z,97.60
2022-09-20T05:34:40.886Z,97.90
2022-09-20T05:35:40.878Z,98.31
2022-09-20T05:36:40.885Z,98.52
2022-09-20T05:37:40.891Z,98.61
2022-09-20T05:38:40.843Z,98.52
2022-09-20T05:39:40.834Z,98.31
2022-09-20T05:40:40.833Z,98.11
2022-09-20T05:41:40.818Z,98.00
2022-09-20T05:42:40.789Z,97.90
2022-09-20T05:43:40.833Z,97.80
2022-09-20T05:44:40.784Z,97.80
2022-09-20T05:45:40.810Z,98.11
2022-09-20T05:46:40.782Z,97.80
2022-09-20T05:47:40.740Z,97.19
2022-09-20T05:48:40.760Z,96.47
2022-09-20T05:49:40.754Z,95.70
2022-09-20T05:50:40.731Z,95.50
2022-09-20T05:51:40.712Z,95.39
2022-09-20T05:52:40.724Z,95.50
2022-09-20T05:53:40.686Z,95.60
2022-09-20T05:54:40.682Z,95.70
2022-09-20T05:55:40.661Z,95.39
2022-09-20T05:56:40.661Z,94.48
2022-09-20T05:57:40.650Z,94.17
2022-09-20T05:58:40.664Z,93.96
2022-09-20T05:59:40.617Z,94.07
2022-09-20T06:00:40.603Z,93.86
2022-09-20T06:01:40.608Z,93.35
2022-09-20T06:02:40.623Z,93.66
2022-09-20T06:03:40.583Z,93.55
2022-09-20T06:04:40.617Z,93.55
2022-09-20T06:05:40.565Z,93.45
2022-09-20T06:06:40.546Z,93.25
2022-09-20T06:07:40.565Z,93.45
2022-09-20T06:08:40.526Z,93.71
2022-09-20T06:09:40.504Z,94.02
2022-09-20T06:10:40.549Z,94.33
2022-09-20T06:11:41.344Z,93.92
2022-09-20T06:12:40.487Z,93.62
2022-09-20T06:13:40.460Z,93.62
2022-09-20T06:14:40.457Z,93.41
2022-09-20T06:15:40.536Z,93.51
2022-09-20T06:16:40.517Z,94.02
2022-09-20T06:17:40.429Z,94.64
2022-09-20T06:18:40.437Z,95.15
2022-09-20T06:19:40.423Z,95.61
2022-09-20T06:20:40.411Z,94.12
2022-09-20T06:21:40.398Z,93.92
2022-09-20T06:22:40.428Z,93.82
2022-09-20T06:23:40.384Z,93.21
2022-09-20T06:24:40.339Z,93.31
2022-09-20T06:25:40.359Z,93.41
2022-09-20T06:26:40.366Z,93.51
2022-09-20T06:27:40.309Z,93.51
2022-09-20T06:28:40.309Z,92.69
2022-09-20T06:29:40.302Z,92.59
2022-09-20T06:30:40.313Z,92.90
2022-09-20T06:31:40.279Z,92.69
2022-09-20T06:32:40.274Z,93.10
2022-09-20T06:33:40.276Z,93.26
2022-09-20T06:34:40.240Z,93.16
2022-09-20T06:35:40.234Z,93.37
2022-09-20T06:36:40.242Z,93.47
2022-09-20T06:37:40.197Z,93.06
2022-09-20T06:38:40.224Z,92.96
2022-09-20T06:39:40.191Z,93.26
2022-09-20T06:40:40.218Z,93.06
2022-09-20T06:41:40.161Z,93.26
2022-09-20T06:42:40.196Z,93.16
2022-09-20T06:43:40.133Z,93.37
2022-09-20T06:44:40.176Z,93.37
2022-09-20T06:45:40.175Z,93.22
2022-09-20T06:46:40.133Z,93.43
2022-09-20T06:47:40.096Z,93.73
2022-09-20T06:48:40.105Z,93.63
2022-09-20T06:49:40.094Z,93.84
2022-09-20T06:50:40.072Z,94.04
2022-09-20T06:51:40.074Z,94.34
2022-09-20T06:52:40.045Z,94.14
2022-09-20T06:53:40.025Z,94.14
2022-09-20T06:54:40.068Z,94.30
2022-09-20T06:55:40.007Z,94.20
2022-09-20T06:56:40.008Z,94.40
2022-09-20T06:57:40.010Z,94.40
2022-09-20T06:58:39.979Z,94.40
2022-09-20T06:59:39.986Z,94.60
2022-09-20T07:00:39.998Z,94.56
2022-09-20T07:01:39.998Z,94.66
2022-09-20T07:02:39.938Z,94.66
2022-09-20T07:03:39.927Z,94.66
2022-09-20T07:04:39.927Z,94.97
2022-09-20T07:05:39.899Z,94.97
2022-09-20T07:06:39.907Z,94.56
2022-09-20T07:07:39.876Z,94.46
2022-09-20T07:08:39.867Z,94.56
2022-09-20T07:09:39.886Z,94.66
2022-09-20T07:10:39.852Z,94.66
2022-09-20T07:11:39.829Z,94.76
2022-09-20T07:12:39.829Z,94.76
2022-09-20T07:13:39.829Z,93.74
2022-09-20T07:14:39.799Z,93.03
2022-09-20T07:15:39.826Z,92.52
2022-09-20T07:16:39.917Z,91.71
2022-09-20T07:17:39.770Z,91.09
2022-09-20T07:18:39.818Z,90.99
2022-09-20T07:19:39.762Z,90.48
2022-09-20T07:20:39.752Z,90.48
2022-09-20T07:21:39.778Z,90.55
2022-09-20T07:22:39.722Z,90.95
2022-09-20T07:23:39.713Z,91.16
2022-09-20T07:24:39.702Z,90.75
2022-09-20T07:25:39.684Z,90.24
2022-09-20T07:26:39.704Z,90.34
2022-09-20T07:27:39.679Z,90.34
2022-09-20T07:28:39.655Z,90.75
2022-09-20T07:29:39.653Z,90.75
2022-09-20T07:30:39.638Z,91.05
2022-09-20T07:31:39.711Z,91.26
2022-09-20T07:32:39.612Z,91.26
2022-09-20T07:33:39.611Z,90.95
2022-09-20T07:34:39.602Z,90.75
2022-09-20T07:35:39.585Z,90.75
2022-09-20T07:36:39.610Z,90.55
2022-09-20T07:37:39.566Z,90.44
2022-09-20T07:38:39.547Z,90.30
2022-09-20T07:39:39.567Z,90.20
2022-09-20T07:40:39.588Z,90.09
2022-09-20T07:41:39.557Z,89.89
2022-09-20T07:42:39.516Z,89.38
2022-09-20T07:43:39.514Z,89.18
2022-09-20T07:44:39.496Z,89.48
2022-09-20T07:45:39.539Z,89.07
2022-09-20T07:46:39.477Z,89.64
2022-09-20T07:47:39.470Z,88.93
2022-09-20T07:48:39.439Z,89.44
2022-09-20T07:49:39.429Z,88.42
2022-09-20T07:50:39.424Z,88.32
2022-09-20T07:51:39.418Z,87.30
2022-09-20T07:52:39.396Z,87.00
2022-09-20T07:53:39.390Z,87.71
2022-09-20T07:54:39.370Z,87.47
2022-09-20T07:55:39.368Z,87.57
2022-09-20T07:56:39.346Z,87.98
2022-09-20T07:57:39.380Z,88.48
2022-09-20T07:58:39.329Z,88.59
2022-09-20T07:59:39.325Z,88.59
2022-09-20T08:00:39.332Z,88.89
2022-09-20T08:01:39.301Z,87.47
2022-09-20T08:02:39.324Z,86.65
2022-09-20T08:03:39.393Z,86.86
2022-09-20T08:04:39.260Z,87.47
2022-09-20T08:05:39.262Z,87.67
2022-09-20T08:06:39.272Z,87.77
2022-09-20T08:07:39.235Z,88.08
2022-09-20T08:08:39.245Z,87.77
2022-09-20T08:09:39.218Z,87.37
2022-09-20T08:10:39.204Z,87.06
2022-09-20T08:11:39.194Z,87.26
2022-09-20T08:14:39.150Z,87.67
2022-09-20T08:15:39.144Z,86.96
2022-09-20T08:16:39.210Z,87.02
2022-09-20T08:17:39.203Z,87.84
2022-09-20T08:18:39.107Z,87.23
2022-09-20T08:19:39.144Z,87.12
2022-09-20T08:20:39.088Z,87.32
2022-09-20T08:21:39.099Z,87.32
2022-09-20T08:22:39.087Z,87.93
2022-09-20T08:23:39.095Z,87.43
2022-09-20T08:24:39.047Z,87.32
2022-09-20T08:25:39.070Z,87.53
2022-09-20T08:26:39.037Z,88.44
2022-09-20T08:27:39.014Z,87.53
2022-09-20T08:28:39.009Z,87.02
2022-09-20T08:29:39.024Z,87.32
2022-09-20T08:30:38.979Z,86.71
2022-09-20T08:31:39.023Z,88.85
2022-09-20T08:32:38.967Z,86.92
2022-09-20T08:33:38.946Z,87.23
2022-09-20T08:34:38.940Z,87.84
2022-09-20T08:35:38.967Z,86.82
2022-09-20T08:36:38.939Z,84.99
2022-09-20T08:37:38.930Z,86.10
2022-09-20T08:40:38.972Z,86.68
2022-09-20T08:41:38.895Z,86.98
2022-09-20T08:42:43.822Z,86.16
2022-09-20T08:43:45.241Z,86.88
2022-09-20T08:44:45.429Z,85.76
2022-09-20T08:45:39.906Z,86.07
2022-09-20T08:46:38.896Z,86.16
2022-09-20T08:47:38.835Z,85.25
2022-09-20T08:48:38.787Z,85.05
2022-09-20T08:49:38.786Z,83.89
2022-09-20T08:50:38.777Z,84.40
2022-09-20T08:51:38.755Z,84.30
2022-09-20T08:52:38.762Z,84.30
2022-09-20T08:53:38.780Z,84.70
2022-09-20T08:54:38.712Z,85.11
2022-09-20T08:55:38.719Z,85.11
2022-09-20T08:56:38.713Z,84.97
2022-09-20T08:57:38.724Z,84.16
2022-09-20T08:58:38.673Z,84.05
2022-09-20T08:59:38.687Z,84.16
2022-09-20T09:00:38.665Z,84.16
2022-09-20T09:01:38.655Z,83.85
2022-09-20T09:02:38.709Z,84.56
2022-09-20T09:03:38.625Z,84.05
2022-09-20T09:04:38.616Z,84.26
2022-09-20T09:05:38.596Z,84.36
2022-09-20T09:06:38.597Z,83.65
2022-09-20T09:07:38.607Z,84.56
2022-09-20T09:08:38.584Z,84.63
2022-09-20T09:09:38.554Z,84.32
2022-09-20T09:10:45.634Z,84.42
2022-09-20T09:11:45.772Z,84.72
2022-09-20T09:12:39.576Z,84.52
2022-09-20T09:13:38.526Z,84.52
2022-09-20T09:14:38.519Z,85.03
2022-09-20T09:15:38.497Z,84.93
2022-09-20T09:16:38.539Z,84.32
2022-09-20T09:17:38.524Z,84.12
2022-09-20T09:18:38.501Z,84.22
2022-09-20T09:19:38.461Z,84.01
2022-09-20T09:20:38.449Z,84.83
2022-09-20T09:21:38.440Z,85.39
2022-09-20T09:22:38.466Z,83.98
2022-09-20T09:23:38.418Z,83.77
2022-09-20T09:24:38.443Z,83.47
2022-09-20T09:25:38.579Z,83.87
2022-09-20T09:26:38.409Z,83.06
2022-09-20T09:27:38.374Z,83.83
2022-09-20T09:28:38.372Z,83.53
2022-09-20T09:29:38.373Z,84.14
2022-09-20T09:30:38.343Z,83.37
2022-09-20T09:31:38.410Z,83.67
2022-09-20T09:32:38.321Z,83.67
2022-09-20T09:33:38.302Z,83.77
2022-09-20T09:34:38.298Z,85.09
2022-09-20T09:35:38.328Z,84.78
2022-09-20T09:36:38.274Z,84.78
2022-09-20T09:37:38.277Z,85.09
2022-09-20T09:38:38.275Z,85.50
2022-09-20T09:39:38.443Z,85.09
2022-09-20T09:40:38.267Z,85.24
2022-09-20T09:41:38.254Z,84.83
2022-09-20T09:42:38.225Z,85.13
2022-09-20T09:43:38.195Z,85.64
2022-09-20T09:44:38.222Z,86.25
2022-09-20T09:45:38.224Z,86.35
2022-09-20T09:46:38.209Z,86.45
2022-09-20T09:47:38.154Z,86.86
2022-09-20T09:48:40.216Z,86.96
2022-09-20T09:49:38.159Z,86.45
2022-09-20T09:50:38.128Z,86.39
2022-09-20T09:51:38.108Z,86.80
2022-09-20T09:52:38.137Z,86.80
2022-09-20T09:53:38.101Z,86.80
2022-09-20T09:54:38.077Z,86.80
2022-09-20T09:55:38.070Z,87.92
2022-09-20T09:56:38.058Z,87.92
2022-09-20T09:57:38.053Z,87.46
2022-09-20T09:58:38.070Z,86.96
2022-09-20T09:59:38.033Z,86.76
2022-09-20T10:00:38.030Z,87.16
2022-09-20T10:01:38.072Z,86.65
2022-09-20T10:02:38.048Z,86.41
2022-09-20T10:03:38.012Z,86.51
2022-09-20T10:04:37.989Z,84.89
2022-09-20T10:05:37.976Z,85.30
2022-09-20T10:06:37.962Z,84.18
2022-09-20T10:07:37.961Z,84.58
2022-09-20T10:08:37.974Z,84.58
2022-09-20T10:09:37.916Z,84.69
2022-09-20T10:10:37.912Z,84.58
2022-09-20T10:11:37.918Z,84.89
2022-09-20T10:12:37.905Z,84.48
2022-09-20T10:13:40.604Z,85.30
2022-09-20T10:14:37.864Z,84.99
2022-09-20T10:15:37.881Z,84.08
2022-09-20T10:16:37.946Z,84.78
2022-09-20T10:17:37.848Z,84.58
2022-09-20T10:18:37.818Z,84.58
2022-09-20T10:19:37.843Z,84.78
2022-09-20T10:20:37.809Z,84.89
2022-09-20T10:21:37.784Z,84.28
2022-09-20T10:22:37.776Z,83.87
2022-09-20T10:24:02.188Z,84.28
2022-09-20T10:24:38.773Z,82.86
2022-09-20T10:25:37.737Z,83.57
2022-09-20T10:26:37.762Z,83.37
2022-09-20T10:27:37.739Z,84.08
2022-09-20T10:28:37.741Z,83.26
2022-09-20T10:29:37.742Z,84.38
2022-09-20T10:30:37.761Z,85.80
2022-09-20T10:31:37.703Z,84.48
2022-09-20T10:32:37.684Z,85.09
2022-09-20T10:33:37.690Z,86.91
2022-09-20T10:34:37.668Z,85.76
2022-09-20T10:35:37.657Z,83.73
2022-09-20T10:36:37.640Z,84.14
2022-09-20T10:37:37.676Z,83.73
2022-09-20T10:38:37.618Z,80.39
2022-09-20T10:39:37.673Z,82.31
2022-09-20T10:40:37.650Z,79.17
2022-09-20T10:41:37.590Z,76.74
2022-09-20T10:42:37.650Z,76.84
2022-09-20T10:43:37.565Z,76.64
2022-09-20T10:44:37.546Z,80.29
2022-09-20T10:46:03.843Z,79.27
2022-09-20T10:46:38.579Z,80.99
2022-09-20T10:47:37.512Z,81.91
2022-09-20T10:48:37.489Z,83.23
2022-09-20T10:49:37.513Z,80.59
2022-09-20T10:50:37.468Z,80.93
2022-09-20T10:51:37.491Z,82.56
2022-09-20T10:52:37.463Z,86.51
2022-09-20T10:53:37.433Z,86.00
2022-09-20T10:54:37.442Z,83.57
2022-09-20T10:55:37.433Z,83.98
2022-09-20T10:56:37.414Z,84.08
2022-09-20T10:57:37.417Z,85.33
2022-09-20T10:58:37.381Z,82.39
2022-09-20T10:59:37.376Z,83.71
2022-09-20T11:00:37.375Z,83.31
2022-09-20T11:01:37.383Z,83.00
2022-09-20T11:02:37.426Z,84.22
2022-09-20T11:03:37.330Z,85.44
2022-09-20T11:04:37.357Z,85.94
2022-09-20T11:05:37.333Z,86.55
2022-09-20T11:06:37.304Z,87.97
2022-09-20T11:07:37.292Z,89.86
2022-09-20T11:08:37.315Z,89.86
2022-09-20T11:09:37.267Z,90.93
2022-09-20T11:10:37.263Z,92.65
2022-09-20T11:11:37.258Z,93.22
2022-09-20T11:12:37.329Z,91.80
2022-09-20T11:13:37.260Z,90.58
2022-09-20T11:14:37.250Z,89.37
2022-09-20T11:15:37.214Z,91.50
2022-09-20T11:16:37.256Z,92.00
2022-09-20T11:17:37.200Z,91.80
2022-09-20T11:18:37.386Z,90.28
2022-09-20T11:19:37.187Z,92.10
2022-09-20T11:20:37.159Z,91.80
2022-09-20T11:21:37.161Z,91.09
2022-09-20T11:22:37.156Z,88.05
2022-09-20T11:23:37.123Z,88.96
2022-09-20T11:24:37.154Z,87.85
2022-09-20T11:25:37.098Z,87.85
2022-09-20T11:26:37.110Z,82.68
2022-09-20T11:27:37.081Z,85.82
2022-09-20T11:28:37.133Z,85.82
2022-09-20T11:29:37.080Z,86.02
2022-09-20T11:30:37.060Z,82.89
2022-09-20T11:31:37.091Z,81.81
2022-09-20T11:32:37.057Z,80.39
2022-09-20T11:33:40.694Z,82.17
2022-09-20T11:34:37.065Z,83.90
2022-09-20T11:35:36.999Z,84.91
2022-09-20T11:36:36.987Z,85.62
2022-09-20T11:37:36.983Z,85.82
2022-09-20T11:38:36.964Z,88.66
2022-09-20T11:39:36.987Z,91.09
2022-09-20T11:40:37.006Z,89.26
2022-09-20T11:41:36.935Z,90.42
2022-09-20T11:42:36.920Z,88.90
2022-09-20T11:43:36.917Z,89.31
2022-09-20T11:44:36.927Z,89.25
2022-09-20T11:45:36.944Z,89.76
2022-09-20T11:46:36.899Z,91.48
2022-09-20T11:47:53.782Z,90.51
2022-09-20T11:48:37.857Z,90.71
2022-09-20T11:49:36.881Z,92.54
2022-09-20T11:50:36.864Z,90.75
2022-09-20T11:51:36.827Z,90.14
2022-09-20T11:52:36.839Z,90.05
2022-09-20T11:53:37.174Z,90.45
2022-09-20T11:54:36.798Z,92.38
2022-09-20T11:55:36.800Z,92.18
2022-09-20T11:56:36.787Z,91.77
2022-09-20T11:57:36.777Z,92.28
2022-09-20T11:58:36.757Z,92.58
2022-09-20T11:59:36.763Z,92.83
2022-09-20T12:00:36.744Z,93.49
2022-09-20T12:01:36.738Z,94.41
2022-09-20T12:02:36.830Z,94.71
2022-09-20T12:03:36.754Z,94.61
2022-09-20T12:04:37.001Z,94.92
2022-09-20T12:05:36.708Z,95.02
2022-09-20T12:06:36.663Z,94.41
2022-09-20T12:07:36.648Z,92.48
2022-09-20T12:08:36.661Z,92.38
2022-09-20T12:09:36.631Z,93.45
2022-09-20T12:10:36.671Z,93.65
2022-09-20T12:11:36.602Z,93.76
2022-09-20T12:12:36.606Z,93.65
2022-09-20T12:13:36.610Z,93.55
2022-09-20T12:14:36.596Z,92.54
2022-09-20T12:15:36.584Z,91.32
2022-09-20T12:16:36.608Z,92.33
2022-09-20T12:17:36.533Z,92.54
2022-09-20T12:18:36.544Z,92.84
2022-09-20T12:19:36.523Z,92.13
2022-09-20T12:20:36.535Z,91.93
2022-09-20T12:21:36.507Z,92.09
2022-09-20T12:22:36.590Z,92.90
2022-09-20T12:23:36.495Z,91.89
2022-09-20T12:24:36.472Z,92.40
2022-09-20T12:25:36.451Z,93.00
2022-09-20T12:26:36.444Z,93.37
2022-09-20T12:27:36.441Z,93.77
2022-09-20T12:28:36.424Z,93.97
2022-09-20T12:29:36.425Z,92.35
2022-09-20T12:30:36.435Z,90.62
2022-09-20T12:31:36.440Z,89.81
2022-09-20T12:32:36.395Z,90.42
2022-09-20T12:33:36.380Z,90.22
2022-09-20T12:34:36.377Z,88.29
2022-09-20T12:35:36.379Z,89.21
2022-09-20T12:36:36.473Z,90.93
2022-09-20T12:37:36.325Z,89.61
2022-09-20T12:38:36.342Z,86.47
2022-09-20T12:39:36.321Z,88.90
2022-09-20T12:40:36.346Z,88.70
2022-09-20T12:41:36.280Z,87.89
2022-09-20T12:42:36.281Z,87.95
2022-09-20T12:43:36.269Z,87.34
2022-09-20T12:44:36.257Z,87.95
2022-09-20T12:45:36.281Z,86.73
2022-09-20T12:46:36.231Z,88.56
2022-09-20T12:47:36.232Z,86.83
2022-09-20T12:48:36.231Z,84.10
2022-09-20T12:49:36.200Z,83.90
2022-09-20T12:50:36.202Z,83.80
2022-09-20T12:51:36.183Z,85.72
2022-09-20T12:52:36.171Z,86.63
2022-09-20T12:53:36.160Z,90.08
2022-09-20T12:54:36.174Z,87.14
2022-09-20T12:55:36.162Z,84.00
2022-09-20T12:56:36.152Z,85.01